< < Back
Terminal Aerodrome Forecast


Current Version              Previous Versions:   1  2  3  4  5  6  7  8  9  

Terminal Aerodrome Forecast

526
FTUS42 KCHS 221100
TAFCHS
TAF
KCHS 221131Z 2212/2312 04007KT P6SM SKC
     FM221700 06009KT P6SM SCT025
     FM230200 06010KT P6SM SCT015 BKN025
     FM230900 05006KT 4SM BR SCT004 BKN012=

Latest METAR

643
SAUS80 KWBC 230100
MTRCHS
METAR KCHS 230056Z 06007KT 10SM FEW005 SCT120 12/10 A3032 RMK AO2 SLP267
T01170100 $


USA.gov is the U.S. government's official web portal to all federal, state and local government web resources and services.